Hasty, Arkansas
Current Conditions -  °F | °C
As of 11:33 AM on Friday 31 Oct 2014 (Local Time) from KHRO Reporting Station
Overcast Overcast  
Wind Chill: 52°   Ceiling: 3000
Heat Index: 52°   Visibility: 10mi
Dew Point: 37°   Wind: 12mph
Humidity: 57%   Direction: 360°N
Pressure: 30.3"   Gusts: 20mph
Location:  36.02°N, 93.05°W
Report Text: KHRO 311633Z AUTO 36010G17KT 10SM OVC030 11/03 A3030 RMK AO2 T01110028
Loading
Personal Weather Stations






























Interactive Weather Map
Tropical Storm Tracking
New forecast layout! Learn more

10-Day Weather Forecast

Advertisements
Track Severe Weather on mobile